KELD/ELD METAR and TAF weather

Enter ICAO airport designator
Station Type Date Time Source
KELD METAR 2021/01/27 12:53 UTC NOAA

KELD 271253Z AUTO 32009KT 10SM OVC021 06/02 A3018 RMK AO2 SLP218 T00560017


Station Type Date Time Source
KELD Decoded METAR 2021/01/27 12:53 UTC NOAA

SOUTH ARKANSAS REGIONAL, AR, United States (KELD) 33-13N 092-49W 81M
Jan 27, 2021 - 07:53 AM EST / 2021.01.27 1253 UTC
Wind: from the NW (320 degrees) at 10 MPH (9 KT):0
Visibility: 10 mile(s):0
Sky conditions: overcast
Temperature: 42.1 F (5.6 C)
Dew Point: 35.1 F (1.7 C)
Relative Humidity: 75%
Pressure (altimeter): 30.18 in. Hg (1022 hPa)
ob: KELD 271253Z AUTO 32009KT 10SM OVC021 06/02 A3018 RMK AO2 SLP218 T00560017
cycle: 13

Station Type Date Time Source
KELD TAF 2021/01/27 12:42 UTC NOAA

TAF KELD 271140Z 2712/2812 34006KT P6SM BKN100
TEMPO 2712/2715 36008KT P6SM BKN025
FM271500 35008G16KT P6SM BKN050
FM271900 34013G19KT P6SM FEW025 FEW250
FM280000 35006KT P6SM FEW030 FEW250
FM280900 36004KT P6SM SKC

Example: see airport list